createdAt,value
2022-10-22T00:00:30.893Z,997.53
2022-10-22T00:01:30.862Z,997.60
2022-10-22T00:02:30.883Z,997.59
2022-10-22T00:03:30.832Z,997.54
2022-10-22T00:04:34.488Z,997.61
2022-10-22T00:05:30.822Z,997.56
2022-10-22T00:06:30.791Z,997.60
2022-10-22T00:07:30.820Z,997.60
2022-10-22T00:08:30.841Z,997.61
2022-10-22T00:09:30.773Z,997.58
2022-10-22T00:10:30.750Z,997.59
2022-10-22T00:11:30.762Z,997.56
2022-10-22T00:12:30.730Z,997.61
2022-10-22T00:13:30.721Z,997.58
2022-10-22T00:14:30.700Z,997.60
2022-10-22T00:15:30.679Z,997.59
2022-10-22T00:16:30.670Z,997.61
2022-10-22T00:17:30.675Z,997.65
2022-10-22T00:18:30.652Z,997.71
2022-10-22T00:19:30.629Z,997.72
2022-10-22T00:20:30.622Z,997.65
2022-10-22T00:21:30.599Z,997.73
2022-10-22T00:22:30.615Z,997.75
2022-10-22T00:23:30.578Z,997.77
2022-10-22T00:24:30.569Z,997.76
2022-10-22T00:25:30.549Z,997.81
2022-10-22T00:26:30.548Z,997.84
2022-10-22T00:27:30.531Z,997.82
2022-10-22T00:28:30.519Z,997.74
2022-10-22T00:29:30.500Z,997.78
2022-10-22T00:30:30.490Z,997.76
2022-10-22T00:31:30.478Z,997.88
2022-10-22T00:32:30.480Z,997.86
2022-10-22T00:33:30.451Z,997.87
2022-10-22T00:34:30.437Z,997.86
2022-10-22T00:35:30.426Z,997.82
2022-10-22T00:36:30.421Z,997.85
2022-10-22T00:37:30.419Z,997.91
2022-10-22T00:38:30.395Z,997.86
2022-10-22T00:39:30.366Z,997.85
2022-10-22T00:40:30.377Z,997.85
2022-10-22T00:41:30.351Z,997.82
2022-10-22T00:42:30.357Z,997.84
2022-10-22T00:43:30.318Z,997.74
2022-10-22T00:44:30.307Z,997.78
2022-10-22T00:45:30.297Z,997.81
2022-10-22T00:46:30.285Z,997.79
2022-10-22T00:47:30.286Z,997.79
2022-10-22T00:48:30.271Z,997.85
2022-10-22T00:49:30.248Z,997.81
2022-10-22T00:50:30.245Z,997.81
2022-10-22T00:51:30.220Z,997.72
2022-10-22T00:52:30.232Z,997.75
2022-10-22T00:53:30.195Z,997.77
2022-10-22T00:54:30.185Z,997.84
2022-10-22T00:55:30.164Z,997.83
2022-10-22T00:56:30.165Z,997.74
2022-10-22T00:57:30.155Z,997.77
2022-10-22T00:58:30.133Z,997.66
2022-10-22T00:59:30.116Z,997.64
2022-10-22T01:00:30.156Z,997.68
2022-10-22T01:01:30.092Z,997.67
2022-10-22T01:02:30.093Z,997.69
2022-10-22T01:03:30.076Z,997.70
2022-10-22T01:04:30.063Z,997.65
2022-10-22T01:05:30.065Z,997.70
2022-10-22T01:06:30.035Z,997.69
2022-10-22T01:07:30.058Z,997.73
2022-10-22T01:08:30.070Z,997.74
2022-10-22T01:09:29.992Z,997.71
2022-10-22T01:10:29.993Z,997.70
2022-10-22T01:11:29.982Z,997.67
2022-10-22T01:12:29.963Z,997.76
2022-10-22T01:13:29.935Z,997.66
2022-10-22T01:14:29.923Z,997.68
2022-10-22T01:15:29.934Z,997.65
2022-10-22T01:16:29.914Z,997.61
2022-10-22T01:17:29.902Z,997.68
2022-10-22T01:18:29.875Z,997.67
2022-10-22T01:19:29.862Z,997.62
2022-10-22T01:20:29.853Z,997.58
2022-10-22T01:21:29.832Z,997.53
2022-10-22T01:22:29.841Z,997.52
2022-10-22T01:23:29.806Z,997.55
2022-10-22T01:24:29.810Z,997.54
2022-10-22T01:25:29.781Z,997.53
2022-10-22T01:26:29.771Z,997.71
2022-10-22T01:27:29.807Z,997.60
2022-10-22T01:28:29.751Z,997.51
2022-10-22T01:29:29.740Z,997.54
2022-10-22T01:30:29.720Z,997.52
2022-10-22T01:31:29.711Z,997.61
2022-10-22T01:32:29.700Z,997.61
2022-10-22T01:33:29.671Z,997.54
2022-10-22T01:34:29.698Z,997.52
2022-10-22T01:35:29.695Z,997.43
2022-10-22T01:36:29.648Z,997.48
2022-10-22T01:37:29.639Z,997.50
2022-10-22T01:38:29.619Z,997.53
2022-10-22T01:39:29.613Z,997.54
2022-10-22T01:40:29.601Z,997.55
2022-10-22T01:41:29.578Z,997.42
2022-10-22T01:42:29.589Z,997.37
2022-10-22T01:43:29.548Z,997.45
2022-10-22T01:44:29.598Z,997.45
2022-10-22T01:45:29.527Z,997.41
2022-10-22T01:46:29.523Z,997.49
2022-10-22T01:47:29.508Z,997.41
2022-10-22T01:48:29.499Z,997.35
2022-10-22T01:49:29.478Z,997.36
2022-10-22T01:50:29.466Z,997.30
2022-10-22T01:51:29.448Z,997.38
2022-10-22T01:52:29.449Z,997.47
2022-10-22T01:53:29.427Z,997.47
2022-10-22T01:54:29.417Z,997.46
2022-10-22T01:55:29.399Z,997.39
2022-10-22T01:56:29.392Z,997.44
2022-10-22T01:57:29.406Z,997.42
2022-10-22T01:58:29.367Z,997.35
2022-10-22T01:59:29.347Z,997.38
2022-10-22T02:00:29.412Z,997.39
2022-10-22T02:01:29.318Z,997.31
2022-10-22T02:02:29.347Z,997.27
2022-10-22T02:03:29.296Z,997.29
2022-10-22T02:04:29.294Z,997.27
2022-10-22T02:05:29.276Z,997.20
2022-10-22T02:06:29.269Z,997.35
2022-10-22T02:07:29.276Z,997.34
2022-10-22T02:08:29.245Z,997.28
2022-10-22T02:09:29.227Z,997.31
2022-10-22T02:10:29.208Z,997.31
2022-10-22T02:11:29.195Z,997.33
2022-10-22T02:12:29.205Z,997.33
2022-10-22T02:13:29.166Z,997.36
2022-10-22T02:14:29.155Z,997.36
2022-10-22T02:15:29.153Z,997.26
2022-10-22T02:16:29.134Z,997.29
2022-10-22T02:17:29.133Z,997.36
2022-10-22T02:18:29.104Z,997.32
2022-10-22T02:19:29.124Z,997.31
2022-10-22T02:20:29.094Z,997.37
2022-10-22T02:21:29.073Z,997.32
2022-10-22T02:22:29.074Z,997.41
2022-10-22T02:23:29.054Z,997.34
2022-10-22T02:24:29.044Z,997.46
2022-10-22T02:25:29.013Z,997.48
2022-10-22T02:26:29.003Z,997.40
2022-10-22T02:27:29.004Z,997.46
2022-10-22T02:28:28.983Z,997.50
2022-10-22T02:29:28.973Z,997.52
2022-10-22T02:30:28.966Z,997.49
2022-10-22T02:31:28.943Z,997.50
2022-10-22T02:32:28.943Z,997.43
2022-10-22T02:33:28.922Z,997.50
2022-10-22T02:34:28.912Z,997.45
2022-10-22T02:35:28.883Z,997.51
2022-10-22T02:36:28.882Z,997.49
2022-10-22T02:37:28.882Z,997.51
2022-10-22T02:38:28.841Z,997.43
2022-10-22T02:39:28.843Z,997.46
2022-10-22T02:40:28.823Z,997.47
2022-10-22T02:41:28.812Z,997.43
2022-10-22T02:42:28.805Z,997.43
2022-10-22T02:43:28.791Z,997.48
2022-10-22T02:44:28.771Z,997.54
2022-10-22T02:45:28.763Z,997.52
2022-10-22T02:46:28.752Z,997.52
2022-10-22T02:47:28.739Z,997.56
2022-10-22T02:48:28.730Z,997.57
2022-10-22T02:49:28.722Z,997.53
2022-10-22T02:50:28.689Z,997.60
2022-10-22T02:51:28.690Z,997.59
2022-10-22T02:52:28.669Z,997.59
2022-10-22T02:53:28.673Z,997.55
2022-10-22T02:54:28.639Z,997.55
2022-10-22T02:55:28.632Z,997.59
2022-10-22T02:56:28.620Z,997.58
2022-10-22T02:57:28.599Z,997.58
2022-10-22T02:58:28.589Z,997.56
2022-10-22T02:59:28.580Z,997.56
2022-10-22T03:00:28.614Z,997.61
2022-10-22T03:01:28.579Z,997.58
2022-10-22T03:02:28.549Z,997.61
2022-10-22T03:03:28.529Z,997.64
2022-10-22T03:04:28.518Z,997.50
2022-10-22T03:05:28.511Z,997.54
2022-10-22T03:06:28.510Z,997.59
2022-10-22T03:07:28.477Z,997.57
2022-10-22T03:08:28.468Z,997.62
2022-10-22T03:09:28.458Z,997.63
2022-10-22T03:10:28.440Z,997.68
2022-10-22T03:11:28.449Z,997.58
2022-10-22T03:12:28.439Z,997.64
2022-10-22T03:13:28.417Z,997.63
2022-10-22T03:14:28.430Z,997.64
2022-10-22T03:16:28.357Z,997.66
2022-10-22T03:17:28.364Z,997.60
2022-10-22T03:18:28.338Z,997.72
2022-10-22T03:19:28.316Z,997.60
2022-10-22T03:20:28.317Z,997.67
2022-10-22T03:21:28.294Z,997.68
2022-10-22T03:22:28.296Z,997.70
2022-10-22T03:23:28.265Z,997.70
2022-10-22T03:24:28.266Z,997.68
2022-10-22T03:25:28.236Z,997.68
2022-10-22T03:26:28.235Z,997.63
2022-10-22T03:27:28.238Z,997.66
2022-10-22T03:28:28.224Z,997.61
2022-10-22T03:29:28.185Z,997.62
2022-10-22T03:30:28.185Z,997.66
2022-10-22T03:31:28.164Z,997.64
2022-10-22T03:32:28.164Z,997.62
2022-10-22T03:33:28.135Z,997.61
2022-10-22T03:34:28.134Z,997.64
2022-10-22T03:35:28.114Z,997.60
2022-10-22T03:36:28.106Z,997.65
2022-10-22T03:37:28.093Z,997.60
2022-10-22T03:38:28.084Z,997.61
2022-10-22T03:39:28.073Z,997.64
2022-10-22T03:40:28.054Z,997.65
2022-10-22T03:41:28.052Z,997.64
2022-10-22T03:42:28.034Z,997.69
2022-10-22T03:43:28.032Z,997.70
2022-10-22T03:44:28.013Z,997.66
2022-10-22T03:45:28.051Z,997.67
2022-10-22T03:46:27.993Z,997.69
2022-10-22T03:47:27.972Z,997.71
2022-10-22T03:48:27.969Z,997.66
2022-10-22T03:49:27.932Z,997.74
2022-10-22T03:50:27.923Z,997.78
2022-10-22T03:51:27.911Z,997.76
2022-10-22T03:52:27.912Z,997.79
2022-10-22T03:53:28.352Z,997.82
2022-10-22T03:54:27.961Z,997.78
2022-10-22T03:55:27.860Z,997.81
2022-10-22T03:56:27.866Z,997.85
2022-10-22T03:57:27.842Z,997.92
2022-10-22T03:58:27.828Z,997.84
2022-10-22T03:59:27.831Z,997.87
2022-10-22T04:00:27.811Z,997.94
2022-10-22T04:01:27.842Z,997.93
2022-10-22T04:02:27.790Z,997.90
2022-10-22T04:03:27.761Z,997.94
2022-10-22T04:04:27.769Z,997.95
2022-10-22T04:05:27.752Z,997.95
2022-10-22T04:06:27.731Z,997.94
2022-10-22T04:07:27.721Z,997.97
2022-10-22T04:08:27.708Z,997.92
2022-10-22T04:09:27.701Z,997.91
2022-10-22T04:10:27.711Z,997.93
2022-10-22T04:11:27.667Z,997.99
2022-10-22T04:12:27.659Z,998.01
2022-10-22T04:13:27.638Z,997.95
2022-10-22T04:14:27.658Z,997.99
2022-10-22T04:15:27.609Z,997.97
2022-10-22T04:16:30.008Z,998.07
2022-10-22T04:17:27.613Z,998.02
2022-10-22T04:18:27.578Z,998.02
2022-10-22T04:19:27.635Z,998.04
2022-10-22T04:20:27.559Z,998.02
2022-10-22T04:21:27.538Z,998.04
2022-10-22T04:22:27.547Z,998.04
2022-10-22T04:23:27.548Z,998.01
2022-10-22T04:24:27.514Z,998.03
2022-10-22T04:25:27.489Z,998.03
2022-10-22T04:26:27.479Z,998.03
2022-10-22T04:27:27.458Z,998.03
2022-10-22T04:28:27.487Z,998.04
2022-10-22T04:29:27.458Z,998.03
2022-10-22T04:30:27.438Z,998.01
2022-10-22T04:31:27.409Z,997.97
2022-10-22T04:32:27.401Z,998.03
2022-10-22T04:33:27.385Z,998.00
2022-10-22T04:34:27.398Z,998.03
2022-10-22T04:35:27.357Z,998.06
2022-10-22T04:36:27.349Z,998.00
2022-10-22T04:37:27.326Z,998.06
2022-10-22T04:38:27.323Z,998.06
2022-10-22T04:39:27.305Z,998.03
2022-10-22T04:40:27.315Z,997.99
2022-10-22T04:41:27.281Z,998.13
2022-10-22T04:42:27.277Z,997.98
2022-10-22T04:43:27.261Z,998.05
2022-10-22T04:44:27.260Z,998.08
2022-10-22T04:45:27.226Z,998.10
2022-10-22T04:46:27.245Z,998.11
2022-10-22T04:47:27.195Z,998.12
2022-10-22T04:48:27.214Z,998.10
2022-10-22T04:49:27.176Z,998.11
2022-10-22T04:50:27.170Z,998.16
2022-10-22T04:51:27.152Z,997.99
2022-10-22T04:52:27.155Z,998.07
2022-10-22T04:53:27.121Z,998.01
2022-10-22T04:54:29.139Z,998.08
2022-10-22T04:55:28.131Z,998.12
2022-10-22T04:56:27.113Z,998.13
2022-10-22T04:57:27.071Z,998.11
2022-10-22T04:58:27.087Z,998.11
2022-10-22T04:59:27.052Z,998.12
2022-10-22T05:00:27.041Z,998.13
2022-10-22T05:01:27.085Z,998.14
2022-10-22T05:02:27.012Z,998.13
2022-10-22T05:03:26.992Z,998.18
2022-10-22T05:04:27.013Z,998.20
2022-10-22T05:05:26.971Z,998.18
2022-10-22T05:06:26.952Z,998.20
2022-10-22T05:07:26.940Z,998.25
2022-10-22T05:08:26.941Z,998.21
2022-10-22T05:09:26.911Z,998.20
2022-10-22T05:10:26.924Z,998.18
2022-10-22T05:11:26.883Z,998.19
2022-10-22T05:12:26.882Z,998.23
2022-10-22T05:13:26.872Z,998.21
2022-10-22T05:14:26.854Z,998.21
2022-10-22T05:15:26.871Z,998.21
2022-10-22T05:16:26.830Z,998.25
2022-10-22T05:17:26.822Z,998.27
2022-10-22T05:18:26.812Z,998.27
2022-10-22T05:19:26.800Z,998.24
2022-10-22T05:20:26.780Z,998.22
2022-10-22T05:21:26.771Z,998.23
2022-10-22T05:22:26.750Z,998.27
2022-10-22T05:23:26.730Z,998.32
2022-10-22T05:24:26.729Z,998.32
2022-10-22T05:25:26.711Z,998.43
2022-10-22T05:26:26.711Z,998.42
2022-10-22T05:27:26.701Z,998.48
2022-10-22T05:28:26.675Z,998.40
2022-10-22T05:29:26.659Z,998.48
2022-10-22T05:30:26.660Z,998.53
2022-10-22T05:31:26.648Z,998.44
2022-10-22T05:32:26.620Z,998.45
2022-10-22T05:33:26.631Z,998.53
2022-10-22T05:34:26.601Z,998.54
2022-10-22T05:35:26.578Z,998.54
2022-10-22T05:36:26.558Z,998.46
2022-10-22T05:37:26.550Z,998.50
2022-10-22T05:38:26.557Z,998.47
2022-10-22T05:39:26.542Z,998.49
2022-10-22T05:40:31.243Z,998.42
2022-10-22T05:41:27.510Z,998.40
2022-10-22T05:42:26.497Z,998.49
2022-10-22T05:43:26.487Z,998.49
2022-10-22T05:44:26.484Z,998.50
2022-10-22T05:45:26.487Z,998.57
2022-10-22T05:46:26.437Z,998.58
2022-10-22T05:47:26.428Z,998.56
2022-10-22T05:48:26.461Z,998.58
2022-10-22T05:49:26.398Z,998.54
2022-10-22T05:50:26.390Z,998.59
2022-10-22T05:51:26.406Z,998.59
2022-10-22T05:52:26.357Z,998.64
2022-10-22T05:53:26.345Z,998.60
2022-10-22T05:54:26.335Z,998.62
2022-10-22T05:55:26.319Z,998.62
2022-10-22T05:56:26.305Z,998.61
2022-10-22T05:57:26.317Z,998.64
2022-10-22T05:58:26.287Z,998.67
2022-10-22T05:59:26.265Z,998.66
2022-10-22T06:00:26.257Z,998.64
2022-10-22T06:01:26.236Z,998.69
2022-10-22T06:02:26.278Z,998.72
2022-10-22T06:03:26.234Z,998.69
2022-10-22T06:04:26.203Z,998.69
2022-10-22T06:05:26.197Z,998.66
2022-10-22T06:06:26.184Z,998.74
2022-10-22T06:07:26.164Z,998.71
2022-10-22T06:08:26.145Z,998.67
2022-10-22T06:09:26.228Z,998.73
2022-10-22T06:10:26.134Z,998.73
2022-10-22T06:11:27.278Z,998.72
2022-10-22T06:12:26.104Z,998.73
2022-10-22T06:13:26.092Z,998.75
2022-10-22T06:14:26.086Z,998.74
2022-10-22T06:15:26.073Z,998.74
2022-10-22T06:16:26.053Z,998.76
2022-10-22T06:17:26.033Z,998.75
2022-10-22T06:18:26.029Z,998.80
2022-10-22T06:19:26.012Z,998.77
2022-10-22T06:20:26.012Z,998.85
2022-10-22T06:21:25.990Z,998.86
2022-10-22T06:22:25.971Z,998.87
2022-10-22T06:23:25.982Z,998.87
2022-10-22T06:24:25.951Z,998.86
2022-10-22T06:25:25.972Z,998.87
2022-10-22T06:26:25.922Z,998.92
2022-10-22T06:27:25.921Z,998.94
2022-10-22T06:28:25.925Z,998.90
2022-10-22T06:29:25.891Z,998.91
2022-10-22T06:30:25.893Z,998.93
2022-10-22T06:31:25.860Z,998.99
2022-10-22T06:32:25.852Z,998.95
2022-10-22T06:33:25.851Z,999.01
2022-10-22T06:34:25.832Z,998.98
2022-10-22T06:35:25.821Z,999.07
2022-10-22T06:36:25.822Z,999.03
2022-10-22T06:37:25.790Z,999.05
2022-10-22T06:38:25.770Z,999.03
2022-10-22T06:39:25.760Z,999.03
2022-10-22T06:40:25.741Z,999.07
2022-10-22T06:41:28.695Z,999.12
2022-10-22T06:42:25.729Z,999.19
2022-10-22T06:43:25.719Z,999.15
2022-10-22T06:44:25.709Z,999.21
2022-10-22T06:45:25.709Z,999.22
2022-10-22T06:46:25.671Z,999.24
2022-10-22T06:47:25.669Z,999.31
2022-10-22T06:48:25.638Z,999.31
2022-10-22T06:49:25.638Z,999.25
2022-10-22T06:50:25.662Z,999.32
2022-10-22T06:51:25.609Z,999.33
2022-10-22T06:52:25.609Z,999.40
2022-10-22T06:53:25.598Z,999.34
2022-10-22T06:54:25.577Z,999.32
2022-10-22T06:55:25.558Z,999.47
2022-10-22T06:56:25.550Z,999.42
2022-10-22T06:57:25.537Z,999.47
2022-10-22T06:58:25.524Z,999.57
2022-10-22T06:59:25.506Z,999.51
2022-10-22T07:00:25.618Z,999.53
2022-10-22T07:01:25.560Z,999.57
2022-10-22T07:02:25.485Z,999.43
2022-10-22T07:03:25.449Z,999.50
2022-10-22T07:04:25.447Z,999.49
2022-10-22T07:05:25.427Z,999.52
2022-10-22T07:06:25.430Z,999.58
2022-10-22T07:07:25.408Z,999.54
2022-10-22T07:08:25.417Z,999.58
2022-10-22T07:09:25.379Z,999.66
2022-10-22T07:10:28.449Z,999.64
2022-10-22T07:11:25.356Z,999.70
2022-10-22T07:12:25.346Z,999.68
2022-10-22T07:13:25.325Z,999.73
2022-10-22T07:14:25.326Z,999.74
2022-10-22T07:15:25.297Z,999.67
2022-10-22T07:16:29.547Z,999.76
2022-10-22T07:17:26.330Z,999.69
2022-10-22T07:18:25.265Z,999.70
2022-10-22T07:19:25.254Z,999.70
2022-10-22T07:20:25.247Z,999.71
2022-10-22T07:21:25.230Z,999.73
2022-10-22T07:22:25.212Z,999.71
2022-10-22T07:23:25.198Z,999.73
2022-10-22T07:24:25.205Z,999.73
2022-10-22T07:25:25.174Z,999.74
2022-10-22T07:26:25.174Z,999.74
2022-10-22T07:27:25.146Z,999.82
2022-10-22T07:28:25.135Z,999.78
2022-10-22T07:29:25.149Z,999.80
2022-10-22T07:30:25.118Z,999.83
2022-10-22T07:31:25.102Z,999.77
2022-10-22T07:32:25.083Z,999.83
2022-10-22T07:33:25.081Z,999.83
2022-10-22T07:34:25.084Z,999.86
2022-10-22T07:35:25.043Z,999.88
2022-10-22T07:36:25.032Z,999.83
2022-10-22T07:37:26.038Z,999.83
2022-10-22T07:38:25.022Z,999.90
2022-10-22T07:39:25.002Z,999.89
2022-10-22T07:40:25.012Z,999.88
2022-10-22T07:41:24.974Z,999.91
2022-10-22T07:42:25.002Z,999.88
2022-10-22T07:43:24.963Z,999.92
2022-10-22T07:44:24.931Z,999.95
2022-10-22T07:45:24.921Z,999.93
2022-10-22T07:46:24.942Z,999.92
2022-10-22T07:47:24.924Z,999.94
2022-10-22T07:48:24.901Z,999.92
2022-10-22T07:49:24.879Z,999.99
2022-10-22T07:50:24.860Z,999.98
2022-10-22T07:51:24.841Z,1000.06
2022-10-22T07:52:24.850Z,1000.01
2022-10-22T07:53:24.820Z,1000.07
2022-10-22T07:54:24.821Z,1000.11
2022-10-22T07:55:24.789Z,1000.10
2022-10-22T07:56:24.809Z,1000.05
2022-10-22T07:57:24.784Z,1000.11
2022-10-22T07:58:24.768Z,1000.15
2022-10-22T07:59:24.749Z,1000.05
2022-10-22T08:00:25.496Z,1000.11
2022-10-22T08:01:24.754Z,1000.14
2022-10-22T08:02:24.720Z,1000.21
2022-10-22T08:03:24.714Z,1000.14
2022-10-22T08:04:24.698Z,1000.20
2022-10-22T08:05:24.673Z,1000.14
2022-10-22T08:06:24.678Z,1000.15
2022-10-22T08:08:27.138Z,1000.20
2022-10-22T08:09:25.629Z,1000.14
2022-10-22T08:10:24.638Z,1000.27
2022-10-22T08:11:24.598Z,1000.27
2022-10-22T08:12:24.607Z,1000.30
2022-10-22T08:13:24.576Z,1000.32
2022-10-22T08:14:24.577Z,1000.31
2022-10-22T08:15:24.548Z,1000.20
2022-10-22T08:16:24.546Z,1000.25
2022-10-22T08:17:24.516Z,1000.24
2022-10-22T08:18:24.546Z,1000.24
2022-10-22T08:19:24.496Z,1000.30
2022-10-22T08:20:24.485Z,1000.37
2022-10-22T08:21:24.466Z,1000.36
2022-10-22T08:22:24.466Z,1000.41
2022-10-22T08:23:27.504Z,1000.38
2022-10-22T08:24:24.458Z,1000.38
2022-10-22T08:25:24.416Z,1000.41
2022-10-22T08:26:24.415Z,1000.39
2022-10-22T08:27:24.395Z,1000.39
2022-10-22T08:28:24.387Z,1000.42
2022-10-22T08:29:24.375Z,1000.40
2022-10-22T08:30:24.367Z,1000.40
2022-10-22T08:31:24.344Z,1000.47
2022-10-22T08:32:24.393Z,1000.45
2022-10-22T08:33:24.333Z,1000.36
2022-10-22T08:34:24.333Z,1000.46
2022-10-22T08:35:24.304Z,1000.44
2022-10-22T08:36:24.295Z,1000.54
2022-10-22T08:37:24.264Z,1000.49
2022-10-22T08:38:24.254Z,1000.50
2022-10-22T08:39:24.253Z,1000.54
2022-10-22T08:40:24.242Z,1000.64
2022-10-22T08:41:24.214Z,1000.57
2022-10-22T08:42:24.204Z,1000.58
2022-10-22T08:43:24.194Z,1000.67
2022-10-22T08:44:24.182Z,1000.68
2022-10-22T08:45:24.185Z,1000.66
2022-10-22T08:46:24.153Z,1000.66
2022-10-22T08:47:24.134Z,1000.71
2022-10-22T08:48:24.136Z,1000.67
2022-10-22T08:49:24.105Z,1000.74
2022-10-22T08:50:24.102Z,1000.76
2022-10-22T08:51:24.111Z,1000.83
2022-10-22T08:52:24.080Z,1000.74
2022-10-22T08:53:24.052Z,1000.75
2022-10-22T08:54:24.063Z,1000.80
2022-10-22T08:55:24.037Z,1000.83
2022-10-22T08:56:24.032Z,1000.84
2022-10-22T08:57:24.098Z,1000.85
2022-10-22T08:58:24.016Z,1000.99
2022-10-22T08:59:23.992Z,1000.90
2022-10-22T09:00:23.994Z,1000.94
2022-10-22T09:01:23.951Z,1000.92
2022-10-22T09:02:23.960Z,1000.90
2022-10-22T09:03:23.931Z,1000.90
2022-10-22T09:04:23.922Z,1000.94
2022-10-22T09:05:23.900Z,1001.00
2022-10-22T09:06:23.892Z,1000.98
2022-10-22T09:07:23.878Z,1001.05
2022-10-22T09:08:23.882Z,1000.94
2022-10-22T09:09:23.862Z,1000.92
2022-10-22T09:10:23.839Z,1000.97
2022-10-22T09:11:23.842Z,1000.97
2022-10-22T09:12:23.809Z,1001.01
2022-10-22T09:13:23.810Z,1001.00
2022-10-22T09:14:23.799Z,1000.91
2022-10-22T09:15:23.781Z,1000.99
2022-10-22T09:16:23.759Z,1000.94
2022-10-22T09:17:23.751Z,1001.01
2022-10-22T09:18:23.738Z,1000.99
2022-10-22T09:19:23.738Z,1001.01
2022-10-22T09:20:23.698Z,1000.97
2022-10-22T09:21:23.708Z,1001.05
2022-10-22T09:22:23.729Z,1001.02
2022-10-22T09:23:23.688Z,1000.97
2022-10-22T09:24:23.679Z,1000.92
2022-10-22T09:25:23.638Z,1000.94
2022-10-22T09:26:23.629Z,1000.92
2022-10-22T09:27:23.633Z,1001.02
2022-10-22T09:28:23.601Z,1001.11
2022-10-22T09:29:23.597Z,1001.09
2022-10-22T09:30:23.567Z,1001.08
2022-10-22T09:31:23.568Z,1001.09
2022-10-22T09:32:23.546Z,1001.11
2022-10-22T09:33:24.729Z,1001.05
2022-10-22T09:34:23.526Z,1001.08
2022-10-22T09:35:23.516Z,1000.96
2022-10-22T09:36:23.494Z,1001.03
2022-10-22T09:37:23.513Z,1001.17
2022-10-22T09:38:23.465Z,1001.08
2022-10-22T09:39:23.478Z,1001.12
2022-10-22T09:40:23.446Z,1001.12
2022-10-22T09:41:23.436Z,1001.11
2022-10-22T09:42:23.415Z,1001.13
2022-10-22T09:43:23.405Z,1001.09
2022-10-22T09:44:23.395Z,1001.10
2022-10-22T09:45:23.376Z,1001.14
2022-10-22T09:46:23.375Z,1001.16
2022-10-22T09:47:25.999Z,1001.13
2022-10-22T09:48:24.336Z,1001.22
2022-10-22T09:49:23.378Z,1001.15
2022-10-22T09:50:23.304Z,1001.14
2022-10-22T09:51:23.305Z,1001.20
2022-10-22T09:52:23.285Z,1001.24
2022-10-22T09:53:23.285Z,1001.24
2022-10-22T09:54:23.294Z,1001.27
2022-10-22T09:55:23.363Z,1001.27
2022-10-22T09:56:23.445Z,1001.24
2022-10-22T09:57:23.214Z,1001.22
2022-10-22T09:58:23.205Z,1001.24
2022-10-22T09:59:23.203Z,1001.28
2022-10-22T10:00:23.175Z,1001.20
2022-10-22T10:01:23.164Z,1001.30
2022-10-22T10:02:37.590Z,1001.27
2022-10-22T10:03:24.212Z,1001.28
2022-10-22T10:04:23.133Z,1001.35
2022-10-22T10:05:23.104Z,1001.37
2022-10-22T10:06:23.184Z,1001.38
2022-10-22T10:07:23.144Z,1001.42
2022-10-22T10:08:23.152Z,1001.45
2022-10-22T10:09:23.205Z,1001.39
2022-10-22T10:10:23.122Z,1001.43
2022-10-22T10:11:28.068Z,1001.51
2022-10-22T10:12:24.023Z,1001.37
2022-10-22T10:13:23.007Z,1001.43
2022-10-22T10:14:22.983Z,1001.44
2022-10-22T10:15:23.002Z,1001.52
2022-10-22T10:16:22.960Z,1001.46
2022-10-22T10:17:22.950Z,1001.46
2022-10-22T10:18:22.931Z,1001.52
2022-10-22T10:19:22.930Z,1001.48
2022-10-22T10:20:22.901Z,1001.56
2022-10-22T10:21:22.923Z,1001.56
2022-10-22T10:22:22.871Z,1001.60
2022-10-22T10:23:24.583Z,1001.65
2022-10-22T10:24:22.850Z,1001.64
2022-10-22T10:25:22.830Z,1001.70
2022-10-22T10:26:22.822Z,1001.63
2022-10-22T10:27:22.839Z,1001.61
2022-10-22T10:28:22.789Z,1001.59
2022-10-22T10:29:22.781Z,1001.65
2022-10-22T10:30:22.773Z,1001.75
2022-10-22T10:31:22.759Z,1001.59
2022-10-22T10:32:24.395Z,1001.64
2022-10-22T10:33:22.749Z,1001.67
2022-10-22T10:34:22.709Z,1001.67
2022-10-22T10:35:22.729Z,1001.78
2022-10-22T10:36:22.688Z,1001.75
2022-10-22T10:37:22.687Z,1001.77
2022-10-22T10:38:24.765Z,1001.76
2022-10-22T10:39:22.668Z,1001.75
2022-10-22T10:40:22.631Z,1001.82
2022-10-22T10:41:22.621Z,1001.81
2022-10-22T10:42:22.598Z,1001.79
2022-10-22T10:43:22.588Z,1001.80
2022-10-22T10:44:22.578Z,1001.85
2022-10-22T10:45:22.603Z,1001.83
2022-10-22T10:46:22.586Z,1001.81
2022-10-22T10:47:22.571Z,1001.89
2022-10-22T10:48:22.544Z,1001.84
2022-10-22T10:49:22.508Z,1001.83
2022-10-22T10:50:22.508Z,1001.79
2022-10-22T10:51:22.498Z,1001.84
2022-10-22T10:52:22.467Z,1001.80
2022-10-22T10:53:22.459Z,1001.80
2022-10-22T10:54:22.458Z,1001.73
2022-10-22T10:55:22.445Z,1001.77
2022-10-22T10:56:22.416Z,1001.81
2022-10-22T10:57:22.426Z,1001.69
2022-10-22T10:58:22.406Z,1001.73
2022-10-22T10:59:22.395Z,1001.75
2022-10-22T11:00:22.410Z,1001.75
2022-10-22T11:01:22.388Z,1001.68
2022-10-22T11:02:22.356Z,1001.82
2022-10-22T11:03:22.336Z,1001.82
2022-10-22T11:04:22.325Z,1001.84
2022-10-22T11:05:22.315Z,1001.81
2022-10-22T11:06:25.395Z,1001.82
2022-10-22T11:07:34.372Z,1001.72
2022-10-22T11:08:23.265Z,1001.74
2022-10-22T11:09:22.246Z,1001.76
2022-10-22T11:10:22.247Z,1001.84
2022-10-22T11:11:22.229Z,1001.82
2022-10-22T11:12:22.205Z,1001.73
2022-10-22T11:13:22.189Z,1001.75
2022-10-22T11:14:24.257Z,1001.82
2022-10-22T11:15:22.176Z,1001.74
2022-10-22T11:16:22.165Z,1001.85
2022-10-22T11:17:22.145Z,1001.80
2022-10-22T11:18:22.134Z,1001.81
2022-10-22T11:19:46.269Z,1001.77
2022-10-22T11:20:23.122Z,1001.74
2022-10-22T11:21:22.085Z,1001.90
2022-10-22T11:22:26.478Z,1001.81
2022-10-22T11:23:22.563Z,1001.83
2022-10-22T11:24:22.075Z,1001.88
2022-10-22T11:25:22.143Z,1001.83
2022-10-22T11:26:22.022Z,1001.85
2022-10-22T11:27:22.025Z,1001.84
2022-10-22T11:28:22.003Z,1001.86
2022-10-22T11:29:21.973Z,1001.82
2022-10-22T11:30:21.983Z,1001.89
2022-10-22T11:31:21.955Z,1001.79
2022-10-22T11:32:21.943Z,1001.87
2022-10-22T11:33:21.927Z,1001.85
2022-10-22T11:34:33.276Z,1001.79
2022-10-22T11:35:25.831Z,1001.79
2022-10-22T11:36:22.012Z,1001.77
2022-10-22T11:37:21.861Z,1001.84
2022-10-22T11:38:21.863Z,1001.90
2022-10-22T11:39:21.842Z,1001.88
2022-10-22T11:40:21.861Z,1001.88
2022-10-22T11:41:21.812Z,1001.90
2022-10-22T11:42:21.812Z,1001.82
2022-10-22T11:43:21.795Z,1001.84
2022-10-22T11:44:21.779Z,1001.94
2022-10-22T11:45:21.785Z,1001.83
2022-10-22T11:46:21.747Z,1001.86
2022-10-22T11:47:21.733Z,1001.89
2022-10-22T11:48:21.720Z,1001.88
2022-10-22T11:49:21.710Z,1001.85
2022-10-22T11:50:21.777Z,1001.88
2022-10-22T11:51:21.680Z,1001.90
2022-10-22T11:52:21.671Z,1001.94
2022-10-22T11:53:21.661Z,1001.94
2022-10-22T11:54:21.651Z,1002.00
2022-10-22T11:55:21.641Z,1001.98
2022-10-22T11:56:21.628Z,1002.04
2022-10-22T11:57:21.598Z,1001.95
2022-10-22T11:58:21.601Z,1002.03
2022-10-22T11:59:21.580Z,1001.97
2022-10-22T12:00:21.571Z,1001.98
2022-10-22T12:01:21.573Z,1001.99
2022-10-22T12:02:21.539Z,1002.00
2022-10-22T12:03:21.519Z,1001.97
2022-10-22T12:04:21.577Z,1001.97
2022-10-22T12:05:21.518Z,1001.99
2022-10-22T12:06:21.487Z,1002.01
2022-10-22T12:07:21.458Z,1001.94
2022-10-22T12:08:21.458Z,1002.01
2022-10-22T12:09:21.439Z,1001.99
2022-10-22T12:10:21.459Z,1002.01
2022-10-22T12:11:21.420Z,1002.03
2022-10-22T12:12:21.408Z,1002.03
2022-10-22T12:13:21.387Z,1002.03
2022-10-22T12:14:21.387Z,1001.97
2022-10-22T12:15:21.378Z,1002.01
2022-10-22T12:16:32.157Z,1001.95
2022-10-22T12:17:22.357Z,1001.85
2022-10-22T12:18:21.330Z,1001.93
2022-10-22T12:19:21.308Z,1001.83
2022-10-22T12:20:21.315Z,1001.84
2022-10-22T12:21:21.285Z,1001.91
2022-10-22T12:22:21.268Z,1001.86